sensor_id;sensor_type;location;lat;lon;timestamp;temperature;humidity
27188;DHT22;14708;50.872;5.306;2023-04-24T00:01:03;20.70;67.50
27188;DHT22;14708;50.872;5.306;2023-04-24T00:03:29;20.70;67.50
27188;DHT22;14708;50.872;5.306;2023-04-24T00:05:55;20.60;67.40
27188;DHT22;14708;50.872;5.306;2023-04-24T00:08:21;20.60;67.40
27188;DHT22;14708;50.872;5.306;2023-04-24T00:10:48;20.60;67.20
27188;DHT22;14708;50.872;5.306;2023-04-24T00:13:13;20.60;67.20
27188;DHT22;14708;50.872;5.306;2023-04-24T00:15:39;20.70;67.30
27188;DHT22;14708;50.872;5.306;2023-04-24T00:18:05;20.60;67.30
27188;DHT22;14708;50.872;5.306;2023-04-24T00:20:31;20.60;67.30
27188;DHT22;14708;50.872;5.306;2023-04-24T00:23:00;20.60;67.30
27188;DHT22;14708;50.872;5.306;2023-04-24T00:25:26;20.60;67.10
27188;DHT22;14708;50.872;5.306;2023-04-24T00:27:54;20.60;67.30
27188;DHT22;14708;50.872;5.306;2023-04-24T00:30:20;20.60;67.10
27188;DHT22;14708;50.872;5.306;2023-04-24T00:32:46;20.60;67.20
27188;DHT22;14708;50.872;5.306;2023-04-24T00:35:12;20.60;67.20
27188;DHT22;14708;50.872;5.306;2023-04-24T00:40:59;20.60;67.20
27188;DHT22;14708;50.872;5.306;2023-04-24T00:43:25;20.60;67.20
27188;DHT22;14708;50.872;5.306;2023-04-24T00:45:51;20.50;67.00
27188;DHT22;14708;50.872;5.306;2023-04-24T00:48:17;20.50;67.00
27188;DHT22;14708;50.872;5.306;2023-04-24T00:50:43;20.50;67.00
27188;DHT22;14708;50.872;5.306;2023-04-24T00:53:09;20.50;67.00
27188;DHT22;14708;50.872;5.306;2023-04-24T01:03:01;20.50;67.00
27188;DHT22;14708;50.872;5.306;2023-04-24T01:05:29;20.50;66.90
27188;DHT22;14708;50.872;5.306;2023-04-24T01:07:55;20.50;67.00
27188;DHT22;14708;50.872;5.306;2023-04-24T01:10:22;20.50;67.00
27188;DHT22;14708;50.872;5.306;2023-04-24T01:12:48;20.50;66.90
27188;DHT22;14708;50.872;5.306;2023-04-24T01:15:14;20.50;67.00
27188;DHT22;14708;50.872;5.306;2023-04-24T01:17:39;20.50;66.90
27188;DHT22;14708;50.872;5.306;2023-04-24T01:20:06;20.40;66.80
27188;DHT22;14708;50.872;5.306;2023-04-24T01:22:52;20.50;66.90
27188;DHT22;14708;50.872;5.306;2023-04-24T01:25:20;20.50;66.80
27188;DHT22;14708;50.872;5.306;2023-04-24T01:27:45;20.40;66.80
27188;DHT22;14708;50.872;5.306;2023-04-24T01:30:12;20.40;66.80
27188;DHT22;14708;50.872;5.306;2023-04-24T01:32:38;20.40;66.90
27188;DHT22;14708;50.872;5.306;2023-04-24T01:35:04;20.40;66.70
27188;DHT22;14708;50.872;5.306;2023-04-24T01:37:30;20.40;66.70
27188;DHT22;14708;50.872;5.306;2023-04-24T01:39:57;20.40;66.80
27188;DHT22;14708;50.872;5.306;2023-04-24T01:42:23;20.40;66.80
27188;DHT22;14708;50.872;5.306;2023-04-24T01:44:50;20.40;66.90
27188;DHT22;14708;50.872;5.306;2023-04-24T01:47:16;20.40;66.80
27188;DHT22;14708;50.872;5.306;2023-04-24T01:49:42;20.40;66.80
27188;DHT22;14708;50.872;5.306;2023-04-24T01:52:08;20.40;66.80
27188;DHT22;14708;50.872;5.306;2023-04-24T01:54:34;20.30;66.80
27188;DHT22;14708;50.872;5.306;2023-04-24T01:57:00;20.40;66.80
27188;DHT22;14708;50.872;5.306;2023-04-24T01:59:28;20.40;66.70
27188;DHT22;14708;50.872;5.306;2023-04-24T02:01:54;20.40;66.70
27188;DHT22;14708;50.872;5.306;2023-04-24T02:04:20;20.40;66.70
27188;DHT22;14708;50.872;5.306;2023-04-24T02:06:45;20.40;66.60
27188;DHT22;14708;50.872;5.306;2023-04-24T02:09:11;20.40;66.80
27188;DHT22;14708;50.872;5.306;2023-04-24T02:11:37;20.40;66.70
27188;DHT22;14708;50.872;5.306;2023-04-24T02:14:02;20.40;66.70
27188;DHT22;14708;50.872;5.306;2023-04-24T02:16:28;20.30;66.60
27188;DHT22;14708;50.872;5.306;2023-04-24T02:18:57;20.40;66.40
27188;DHT22;14708;50.872;5.306;2023-04-24T02:21:23;20.40;66.50
27188;DHT22;14708;50.872;5.306;2023-04-24T02:23:49;20.40;66.60
27188;DHT22;14708;50.872;5.306;2023-04-24T02:26:15;20.30;66.30
27188;DHT22;14708;50.872;5.306;2023-04-24T02:28:40;20.30;66.50
27188;DHT22;14708;50.872;5.306;2023-04-24T02:31:06;20.30;66.40
27188;DHT22;14708;50.872;5.306;2023-04-24T02:33:35;20.30;66.50
27188;DHT22;14708;50.872;5.306;2023-04-24T02:36:02;20.30;66.50
27188;DHT22;14708;50.872;5.306;2023-04-24T02:38:28;20.30;66.50
27188;DHT22;14708;50.872;5.306;2023-04-24T02:40:54;20.30;66.50
27188;DHT22;14708;50.872;5.306;2023-04-24T02:43:20;20.30;66.50
27188;DHT22;14708;50.872;5.306;2023-04-24T02:45:46;20.30;66.50
27188;DHT22;14708;50.872;5.306;2023-04-24T02:48:12;20.30;66.40
27188;DHT22;14708;50.872;5.306;2023-04-24T02:50:38;20.30;66.40
27188;DHT22;14708;50.872;5.306;2023-04-24T02:53:04;20.20;66.40
27188;DHT22;14708;50.872;5.306;2023-04-24T02:55:29;20.30;66.50
27188;DHT22;14708;50.872;5.306;2023-04-24T02:57:55;20.20;66.40
27188;DHT22;14708;50.872;5.306;2023-04-24T03:00:21;20.20;66.10
27188;DHT22;14708;50.872;5.306;2023-04-24T03:02:47;20.20;66.30
27188;DHT22;14708;50.872;5.306;2023-04-24T03:05:13;20.20;66.20
27188;DHT22;14708;50.872;5.306;2023-04-24T03:07:39;20.20;66.40
27188;DHT22;14708;50.872;5.306;2023-04-24T03:10:05;20.20;66.30
27188;DHT22;14708;50.872;5.306;2023-04-24T03:12:31;20.20;66.30
27188;DHT22;14708;50.872;5.306;2023-04-24T03:14:57;20.20;66.40
27188;DHT22;14708;50.872;5.306;2023-04-24T03:17:23;20.20;66.50
27188;DHT22;14708;50.872;5.306;2023-04-24T03:19:48;20.20;66.50
27188;DHT22;14708;50.872;5.306;2023-04-24T03:22:14;20.20;66.40
27188;DHT22;14708;50.872;5.306;2023-04-24T03:24:40;20.20;66.30
27188;DHT22;14708;50.872;5.306;2023-04-24T03:27:06;20.20;66.40
27188;DHT22;14708;50.872;5.306;2023-04-24T03:29:31;20.20;66.50
27188;DHT22;14708;50.872;5.306;2023-04-24T03:31:57;20.10;66.40
27188;DHT22;14708;50.872;5.306;2023-04-24T03:34:22;20.20;66.40
27188;DHT22;14708;50.872;5.306;2023-04-24T03:36:48;20.20;66.10
27188;DHT22;14708;50.872;5.306;2023-04-24T03:39:14;20.20;66.10
27188;DHT22;14708;50.872;5.306;2023-04-24T03:41:40;20.20;66.20
27188;DHT22;14708;50.872;5.306;2023-04-24T03:44:05;20.20;66.10
27188;DHT22;14708;50.872;5.306;2023-04-24T03:46:31;20.20;67.10
27188;DHT22;14708;50.872;5.306;2023-04-24T03:48:57;20.10;66.20
27188;DHT22;14708;50.872;5.306;2023-04-24T03:51:22;20.10;66.30
27188;DHT22;14708;50.872;5.306;2023-04-24T03:53:49;20.10;66.30
27188;DHT22;14708;50.872;5.306;2023-04-24T03:56:15;20.10;66.20
27188;DHT22;14708;50.872;5.306;2023-04-24T03:58:41;20.10;66.20
27188;DHT22;14708;50.872;5.306;2023-04-24T04:01:06;20.10;66.10
27188;DHT22;14708;50.872;5.306;2023-04-24T04:03:32;20.10;66.20
27188;DHT22;14708;50.872;5.306;2023-04-24T04:05:58;20.10;66.10
27188;DHT22;14708;50.872;5.306;2023-04-24T04:08:24;20.10;66.10
27188;DHT22;14708;50.872;5.306;2023-04-24T04:10:50;20.10;66.20
27188;DHT22;14708;50.872;5.306;2023-04-24T04:13:16;20.10;66.00
27188;DHT22;14708;50.872;5.306;2023-04-24T04:15:42;20.10;66.10
27188;DHT22;14708;50.872;5.306;2023-04-24T04:18:08;20.10;66.30
27188;DHT22;14708;50.872;5.306;2023-04-24T04:20:33;20.10;66.30
27188;DHT22;14708;50.872;5.306;2023-04-24T04:22:59;20.10;66.30
27188;DHT22;14708;50.872;5.306;2023-04-24T04:25:25;20.10;66.20
27188;DHT22;14708;50.872;5.306;2023-04-24T04:27:51;20.10;66.20
27188;DHT22;14708;50.872;5.306;2023-04-24T04:30:17;20.10;66.10
27188;DHT22;14708;50.872;5.306;2023-04-24T04:32:43;20.10;66.10
27188;DHT22;14708;50.872;5.306;2023-04-24T04:35:09;20.10;66.10
27188;DHT22;14708;50.872;5.306;2023-04-24T04:37:35;20.10;66.30
27188;DHT22;14708;50.872;5.306;2023-04-24T04:40:02;20.10;66.20
27188;DHT22;14708;50.872;5.306;2023-04-24T04:42:32;20.10;66.20
27188;DHT22;14708;50.872;5.306;2023-04-24T04:45:01;20.10;66.10
27188;DHT22;14708;50.872;5.306;2023-04-24T04:47:27;20.00;66.00
27188;DHT22;14708;50.872;5.306;2023-04-24T04:49:54;20.00;66.10
27188;DHT22;14708;50.872;5.306;2023-04-24T04:52:25;20.00;66.10
27188;DHT22;14708;50.872;5.306;2023-04-24T04:54:51;20.00;66.20
27188;DHT22;14708;50.872;5.306;2023-04-24T04:57:16;20.00;66.00
27188;DHT22;14708;50.872;5.306;2023-04-24T04:59:42;20.10;65.90
27188;DHT22;14708;50.872;5.306;2023-04-24T05:02:08;20.00;65.80
27188;DHT22;14708;50.872;5.306;2023-04-24T05:04:34;20.00;65.80
27188;DHT22;14708;50.872;5.306;2023-04-24T05:07:00;20.00;65.80
27188;DHT22;14708;50.872;5.306;2023-04-24T05:09:25;20.00;65.60
27188;DHT22;14708;50.872;5.306;2023-04-24T05:11:53;20.00;65.60
27188;DHT22;14708;50.872;5.306;2023-04-24T05:14:18;20.00;65.80
27188;DHT22;14708;50.872;5.306;2023-04-24T05:16:44;20.10;65.70
27188;DHT22;14708;50.872;5.306;2023-04-24T05:19:10;20.00;65.80
27188;DHT22;14708;50.872;5.306;2023-04-24T05:21:37;20.00;65.80
27188;DHT22;14708;50.872;5.306;2023-04-24T05:24:05;20.00;65.80
27188;DHT22;14708;50.872;5.306;2023-04-24T05:26:31;20.00;65.40
27188;DHT22;14708;50.872;5.306;2023-04-24T05:28:57;20.00;65.70
27188;DHT22;14708;50.872;5.306;2023-04-24T05:31:22;20.00;65.70
27188;DHT22;14708;50.872;5.306;2023-04-24T05:33:57;20.00;65.70
27188;DHT22;14708;50.872;5.306;2023-04-24T05:36:23;20.00;65.90
27188;DHT22;14708;50.872;5.306;2023-04-24T05:38:49;20.00;65.70
27188;DHT22;14708;50.872;5.306;2023-04-24T05:41:14;20.00;65.60
27188;DHT22;14708;50.872;5.306;2023-04-24T05:43:40;20.00;65.10
27188;DHT22;14708;50.872;5.306;2023-04-24T05:46:06;20.00;65.10
27188;DHT22;14708;50.872;5.306;2023-04-24T05:48:31;20.00;65.00
27188;DHT22;14708;50.872;5.306;2023-04-24T05:50:57;20.00;64.90
27188;DHT22;14708;50.872;5.306;2023-04-24T05:53:23;20.00;65.10
27188;DHT22;14708;50.872;5.306;2023-04-24T05:55:49;20.10;64.70
27188;DHT22;14708;50.872;5.306;2023-04-24T05:58:17;20.00;65.00
27188;DHT22;14708;50.872;5.306;2023-04-24T06:00:43;20.00;65.00
27188;DHT22;14708;50.872;5.306;2023-04-24T06:03:11;20.10;65.00
27188;DHT22;14708;50.872;5.306;2023-04-24T06:05:37;20.00;65.00
27188;DHT22;14708;50.872;5.306;2023-04-24T06:08:03;20.10;64.70
27188;DHT22;14708;50.872;5.306;2023-04-24T06:10:28;20.10;64.60
27188;DHT22;14708;50.872;5.306;2023-04-24T06:12:54;20.10;64.50
27188;DHT22;14708;50.872;5.306;2023-04-24T06:15:27;20.10;64.40
27188;DHT22;14708;50.872;5.306;2023-04-24T06:17:53;20.10;64.50
27188;DHT22;14708;50.872;5.306;2023-04-24T06:20:23;20.10;65.00
27188;DHT22;14708;50.872;5.306;2023-04-24T06:22:50;20.10;65.00
27188;DHT22;14708;50.872;5.306;2023-04-24T06:25:16;20.10;65.60
27188;DHT22;14708;50.872;5.306;2023-04-24T06:27:44;20.20;65.10
27188;DHT22;14708;50.872;5.306;2023-04-24T06:30:10;20.30;65.00
27188;DHT22;14708;50.872;5.306;2023-04-24T06:32:36;20.40;64.90
27188;DHT22;14708;50.872;5.306;2023-04-24T06:35:02;20.50;64.60
27188;DHT22;14708;50.872;5.306;2023-04-24T06:37:28;20.50;64.90
27188;DHT22;14708;50.872;5.306;2023-04-24T06:39:54;20.50;65.00
27188;DHT22;14708;50.872;5.306;2023-04-24T06:42:22;20.60;65.00
27188;DHT22;14708;50.872;5.306;2023-04-24T06:44:50;20.50;65.10
27188;DHT22;14708;50.872;5.306;2023-04-24T06:47:19;20.50;65.40
27188;DHT22;14708;50.872;5.306;2023-04-24T06:49:44;20.50;65.70
27188;DHT22;14708;50.872;5.306;2023-04-24T06:52:10;20.40;65.80
27188;DHT22;14708;50.872;5.306;2023-04-24T06:54:36;20.40;65.90
27188;DHT22;14708;50.872;5.306;2023-04-24T06:57:02;20.30;66.10
27188;DHT22;14708;50.872;5.306;2023-04-24T06:59:28;20.40;66.30
27188;DHT22;14708;50.872;5.306;2023-04-24T07:01:55;20.30;66.20
27188;DHT22;14708;50.872;5.306;2023-04-24T07:04:41;20.50;65.90
27188;DHT22;14708;50.872;5.306;2023-04-24T07:07:11;20.30;66.20
27188;DHT22;14708;50.872;5.306;2023-04-24T07:09:57;20.30;66.30
27188;DHT22;14708;50.872;5.306;2023-04-24T07:12:24;20.30;66.40
27188;DHT22;14708;50.872;5.306;2023-04-24T07:14:51;20.30;66.40
27188;DHT22;14708;50.872;5.306;2023-04-24T07:17:16;20.40;66.10
27188;DHT22;14708;50.872;5.306;2023-04-24T07:19:42;20.40;66.10
27188;DHT22;14708;50.872;5.306;2023-04-24T07:22:08;20.30;66.50
27188;DHT22;14708;50.872;5.306;2023-04-24T07:24:34;20.20;66.80
27188;DHT22;14708;50.872;5.306;2023-04-24T07:27:00;20.20;67.00
27188;DHT22;14708;50.872;5.306;2023-04-24T07:29:28;20.20;67.30
27188;DHT22;14708;50.872;5.306;2023-04-24T07:31:55;20.10;67.10
27188;DHT22;14708;50.872;5.306;2023-04-24T07:34:21;20.10;67.20
27188;DHT22;14708;50.872;5.306;2023-04-24T07:36:47;20.10;67.10
27188;DHT22;14708;50.872;5.306;2023-04-24T07:39:13;20.10;67.10
27188;DHT22;14708;50.872;5.306;2023-04-24T07:41:39;20.10;66.90
27188;DHT22;14708;50.872;5.306;2023-04-24T07:44:05;20.10;66.70
27188;DHT22;14708;50.872;5.306;2023-04-24T07:46:31;20.20;66.20
27188;DHT22;14708;50.872;5.306;2023-04-24T07:48:57;20.30;65.70
27188;DHT22;14708;50.872;5.306;2023-04-24T07:51:24;20.20;65.50
27188;DHT22;14708;50.872;5.306;2023-04-24T07:53:53;20.20;66.00
27188;DHT22;14708;50.872;5.306;2023-04-24T07:56:20;20.20;66.40
27188;DHT22;14708;50.872;5.306;2023-04-24T07:58:46;20.10;67.30
27188;DHT22;14708;50.872;5.306;2023-04-24T08:01:12;20.10;67.80
27188;DHT22;14708;50.872;5.306;2023-04-24T08:03:37;20.10;68.20
27188;DHT22;14708;50.872;5.306;2023-04-24T08:06:03;20.10;68.50
27188;DHT22;14708;50.872;5.306;2023-04-24T08:08:29;20.10;69.00
27188;DHT22;14708;50.872;5.306;2023-04-24T08:10:58;20.00;69.50
27188;DHT22;14708;50.872;5.306;2023-04-24T08:13:24;20.00;69.70
27188;DHT22;14708;50.872;5.306;2023-04-24T08:15:49;20.10;71.00
27188;DHT22;14708;50.872;5.306;2023-04-24T08:18:15;20.00;71.10
27188;DHT22;14708;50.872;5.306;2023-04-24T08:20:42;20.00;72.20
27188;DHT22;14708;50.872;5.306;2023-04-24T08:23:08;20.00;73.00
27188;DHT22;14708;50.872;5.306;2023-04-24T08:25:36;20.00;72.40
27188;DHT22;14708;50.872;5.306;2023-04-24T08:28:03;20.00;73.10
27188;DHT22;14708;50.872;5.306;2023-04-24T08:30:29;20.00;73.60
27188;DHT22;14708;50.872;5.306;2023-04-24T08:32:58;20.10;73.80
27188;DHT22;14708;50.872;5.306;2023-04-24T08:35:23;20.10;72.80
27188;DHT22;14708;50.872;5.306;2023-04-24T08:37:49;20.10;73.20
27188;DHT22;14708;50.872;5.306;2023-04-24T08:40:38;20.20;73.80
27188;DHT22;14708;50.872;5.306;2023-04-24T08:43:04;20.20;74.00
27188;DHT22;14708;50.872;5.306;2023-04-24T08:45:30;20.20;73.90
27188;DHT22;14708;50.872;5.306;2023-04-24T08:47:58;20.30;73.80
27188;DHT22;14708;50.872;5.306;2023-04-24T08:50:25;20.40;73.50
27188;DHT22;14708;50.872;5.306;2023-04-24T08:52:52;20.60;73.40
27188;DHT22;14708;50.872;5.306;2023-04-24T08:55:47;20.60;72.80
27188;DHT22;14708;50.872;5.306;2023-04-24T08:58:33;20.80;72.70
27188;DHT22;14708;50.872;5.306;2023-04-24T09:00:59;20.80;72.10
27188;DHT22;14708;50.872;5.306;2023-04-24T09:03:27;20.80;72.10
27188;DHT22;14708;50.872;5.306;2023-04-24T09:05:55;20.90;72.30
27188;DHT22;14708;50.872;5.306;2023-04-24T09:08:23;20.90;72.20
27188;DHT22;14708;50.872;5.306;2023-04-24T09:10:49;20.90;71.90
27188;DHT22;14708;50.872;5.306;2023-04-24T09:13:15;20.90;72.20
27188;DHT22;14708;50.872;5.306;2023-04-24T09:15:42;20.90;72.00
27188;DHT22;14708;50.872;5.306;2023-04-24T09:18:08;20.90;71.90
27188;DHT22;14708;50.872;5.306;2023-04-24T09:20:34;20.90;72.20
27188;DHT22;14708;50.872;5.306;2023-04-24T09:23:01;21.00;71.80
27188;DHT22;14708;50.872;5.306;2023-04-24T09:25:36;21.10;71.80
27188;DHT22;14708;50.872;5.306;2023-04-24T09:28:03;21.00;71.40
27188;DHT22;14708;50.872;5.306;2023-04-24T09:30:29;21.10;70.30
27188;DHT22;14708;50.872;5.306;2023-04-24T09:33:14;21.00;68.70
27188;DHT22;14708;50.872;5.306;2023-04-24T09:35:50;21.00;69.50
27188;DHT22;14708;50.872;5.306;2023-04-24T09:38:16;21.00;69.80
27188;DHT22;14708;50.872;5.306;2023-04-24T09:40:48;20.90;70.00
27188;DHT22;14708;50.872;5.306;2023-04-24T09:43:13;20.90;71.50
27188;DHT22;14708;50.872;5.306;2023-04-24T09:45:43;20.90;72.70
27188;DHT22;14708;50.872;5.306;2023-04-24T09:48:11;20.80;73.80
27188;DHT22;14708;50.872;5.306;2023-04-24T09:50:37;20.80;73.50
27188;DHT22;14708;50.872;5.306;2023-04-24T09:53:04;20.80;73.10
27188;DHT22;14708;50.872;5.306;2023-04-24T09:55:39;20.80;71.90
27188;DHT22;14708;50.872;5.306;2023-04-24T09:58:04;20.80;71.50
27188;DHT22;14708;50.872;5.306;2023-04-24T10:00:33;20.90;71.60
27188;DHT22;14708;50.872;5.306;2023-04-24T10:03:01;20.80;71.10
27188;DHT22;14708;50.872;5.306;2023-04-24T10:05:34;20.90;71.30
27188;DHT22;14708;50.872;5.306;2023-04-24T10:10:31;20.80;71.20
27188;DHT22;14708;50.872;5.306;2023-04-24T10:12:57;20.80;71.60
27188;DHT22;14708;50.872;5.306;2023-04-24T10:15:24;20.80;71.80
27188;DHT22;14708;50.872;5.306;2023-04-24T10:17:51;20.90;71.30
27188;DHT22;14708;50.872;5.306;2023-04-24T10:20:23;21.00;71.30
27188;DHT22;14708;50.872;5.306;2023-04-24T10:25:26;21.10;70.90
27188;DHT22;14708;50.872;5.306;2023-04-24T10:27:54;21.20;69.10
27188;DHT22;14708;50.872;5.306;2023-04-24T10:30:26;21.20;69.40
27188;DHT22;14708;50.872;5.306;2023-04-24T10:32:52;21.20;69.60
27188;DHT22;14708;50.872;5.306;2023-04-24T10:35:19;21.20;70.20
27188;DHT22;14708;50.872;5.306;2023-04-24T10:37:56;21.10;70.30
27188;DHT22;14708;50.872;5.306;2023-04-24T10:40:27;21.10;68.90
27188;DHT22;14708;50.872;5.306;2023-04-24T10:42:56;21.10;69.00
27188;DHT22;14708;50.872;5.306;2023-04-24T10:45:23;21.00;69.70
27188;DHT22;14708;50.872;5.306;2023-04-24T10:47:59;21.00;69.60
27188;DHT22;14708;50.872;5.306;2023-04-24T10:50:48;20.90;69.70
27188;DHT22;14708;50.872;5.306;2023-04-24T10:53:23;21.00;70.00
27188;DHT22;14708;50.872;5.306;2023-04-24T10:56:10;21.00;69.80
27188;DHT22;14708;50.872;5.306;2023-04-24T10:58:38;21.00;69.70
27188;DHT22;14708;50.872;5.306;2023-04-24T11:01:31;20.90;69.80
27188;DHT22;14708;50.872;5.306;2023-04-24T11:04:02;20.90;70.30
27188;DHT22;14708;50.872;5.306;2023-04-24T11:06:31;21.00;69.60
27188;DHT22;14708;50.872;5.306;2023-04-24T11:09:08;20.90;69.50
27188;DHT22;14708;50.872;5.306;2023-04-24T11:11:35;20.90;69.60
27188;DHT22;14708;50.872;5.306;2023-04-24T11:14:04;20.80;69.50
27188;DHT22;14708;50.872;5.306;2023-04-24T11:16:53;20.80;69.60
27188;DHT22;14708;50.872;5.306;2023-04-24T11:19:29;20.80;69.40
27188;DHT22;14708;50.872;5.306;2023-04-24T11:22:18;20.80;69.40
27188;DHT22;14708;50.872;5.306;2023-04-24T11:27:19;20.80;69.30
27188;DHT22;14708;50.872;5.306;2023-04-24T11:30:17;20.70;69.60
27188;DHT22;14708;50.872;5.306;2023-04-24T11:33:08;20.70;69.30
27188;DHT22;14708;50.872;5.306;2023-04-24T11:35:38;20.70;69.50
27188;DHT22;14708;50.872;5.306;2023-04-24T11:38:07;20.70;69.40
27188;DHT22;14708;50.872;5.306;2023-04-24T11:40:34;20.70;69.20
27188;DHT22;14708;50.872;5.306;2023-04-24T11:43:39;20.70;69.10
27188;DHT22;14708;50.872;5.306;2023-04-24T11:46:39;20.70;69.30
27188;DHT22;14708;50.872;5.306;2023-04-24T11:49:23;20.70;69.30
27188;DHT22;14708;50.872;5.306;2023-04-24T11:52:02;20.60;69.20
27188;DHT22;14708;50.872;5.306;2023-04-24T11:55:05;20.60;69.10
27188;DHT22;14708;50.872;5.306;2023-04-24T11:58:15;20.60;69.00
27188;DHT22;14708;50.872;5.306;2023-04-24T12:01:07;20.60;68.80
27188;DHT22;14708;50.872;5.306;2023-04-24T12:03:39;20.60;69.20
27188;DHT22;14708;50.872;5.306;2023-04-24T12:06:10;20.60;69.00
27188;DHT22;14708;50.872;5.306;2023-04-24T12:08:47;20.60;69.10
27188;DHT22;14708;50.872;5.306;2023-04-24T12:11:19;20.60;69.10
27188;DHT22;14708;50.872;5.306;2023-04-24T12:13:45;20.60;69.20
27188;DHT22;14708;50.872;5.306;2023-04-24T12:16:12;20.60;69.10
27188;DHT22;14708;50.872;5.306;2023-04-24T12:18:42;20.60;68.80
27188;DHT22;14708;50.872;5.306;2023-04-24T12:21:22;20.60;68.70
27188;DHT22;14708;50.872;5.306;2023-04-24T12:23:50;20.60;68.80
27188;DHT22;14708;50.872;5.306;2023-04-24T12:26:21;20.60;69.00
27188;DHT22;14708;50.872;5.306;2023-04-24T12:28:51;20.60;68.90
27188;DHT22;14708;50.872;5.306;2023-04-24T12:31:17;20.60;69.40
27188;DHT22;14708;50.872;5.306;2023-04-24T12:33:43;20.60;69.00
27188;DHT22;14708;50.872;5.306;2023-04-24T12:36:11;20.60;68.80
27188;DHT22;14708;50.872;5.306;2023-04-24T12:38:43;20.60;68.90
27188;DHT22;14708;50.872;5.306;2023-04-24T12:41:13;20.60;68.70
27188;DHT22;14708;50.872;5.306;2023-04-24T12:43:52;20.60;68.60
27188;DHT22;14708;50.872;5.306;2023-04-24T12:46:18;20.60;69.40
27188;DHT22;14708;50.872;5.306;2023-04-24T12:48:43;20.60;68.50
27188;DHT22;14708;50.872;5.306;2023-04-24T12:51:09;20.60;68.40
27188;DHT22;14708;50.872;5.306;2023-04-24T12:53:36;20.60;68.20
27188;DHT22;14708;50.872;5.306;2023-04-24T12:56:02;20.60;68.10
27188;DHT22;14708;50.872;5.306;2023-04-24T12:58:27;20.60;68.10
27188;DHT22;14708;50.872;5.306;2023-04-24T13:01:05;20.60;68.10
27188;DHT22;14708;50.872;5.306;2023-04-24T13:03:31;20.60;68.10
27188;DHT22;14708;50.872;5.306;2023-04-24T13:05:57;20.60;68.10
27188;DHT22;14708;50.872;5.306;2023-04-24T13:08:23;20.60;68.10
27188;DHT22;14708;50.872;5.306;2023-04-24T13:10:49;20.60;68.00
27188;DHT22;14708;50.872;5.306;2023-04-24T13:13:16;20.60;68.10
27188;DHT22;14708;50.872;5.306;2023-04-24T13:15:42;20.60;67.80
27188;DHT22;14708;50.872;5.306;2023-04-24T13:18:08;20.60;67.90
27188;DHT22;14708;50.872;5.306;2023-04-24T13:20:34;20.60;68.10
27188;DHT22;14708;50.872;5.306;2023-04-24T13:23:06;20.70;67.40
27188;DHT22;14708;50.872;5.306;2023-04-24T13:25:35;20.70;66.70
27188;DHT22;14708;50.872;5.306;2023-04-24T13:28:02;20.70;67.10
27188;DHT22;14708;50.872;5.306;2023-04-24T13:30:28;20.70;67.40
27188;DHT22;14708;50.872;5.306;2023-04-24T13:32:54;20.70;67.10
27188;DHT22;14708;50.872;5.306;2023-04-24T13:35:22;20.70;67.60
27188;DHT22;14708;50.872;5.306;2023-04-24T13:37:51;20.70;67.50
27188;DHT22;14708;50.872;5.306;2023-04-24T13:40:16;20.80;65.20
27188;DHT22;14708;50.872;5.306;2023-04-24T13:42:43;20.90;64.30
27188;DHT22;14708;50.872;5.306;2023-04-24T13:45:09;21.00;63.20
27188;DHT22;14708;50.872;5.306;2023-04-24T13:47:35;21.00;62.10
27188;DHT22;14708;50.872;5.306;2023-04-24T13:50:01;21.00;61.30
27188;DHT22;14708;50.872;5.306;2023-04-24T13:52:27;21.00;60.60
27188;DHT22;14708;50.872;5.306;2023-04-24T13:54:53;21.00;61.30
27188;DHT22;14708;50.872;5.306;2023-04-24T13:57:18;21.00;61.30
27188;DHT22;14708;50.872;5.306;2023-04-24T13:59:45;21.00;61.90
27188;DHT22;14708;50.872;5.306;2023-04-24T14:02:10;21.00;59.70
27188;DHT22;14708;50.872;5.306;2023-04-24T14:04:36;21.20;56.90
27188;DHT22;14708;50.872;5.306;2023-04-24T14:07:02;21.20;58.40
27188;DHT22;14708;50.872;5.306;2023-04-24T14:09:28;21.30;59.20
27188;DHT22;14708;50.872;5.306;2023-04-24T14:11:53;21.30;59.80
27188;DHT22;14708;50.872;5.306;2023-04-24T14:14:19;21.40;60.00
27188;DHT22;14708;50.872;5.306;2023-04-24T14:16:45;21.40;59.90
27188;DHT22;14708;50.872;5.306;2023-04-24T14:19:11;21.40;60.00
27188;DHT22;14708;50.872;5.306;2023-04-24T14:21:37;21.50;60.50
27188;DHT22;14708;50.872;5.306;2023-04-24T14:24:06;21.50;60.90
27188;DHT22;14708;50.872;5.306;2023-04-24T14:26:32;21.40;61.20
27188;DHT22;14708;50.872;5.306;2023-04-24T14:28:57;21.40;61.60
27188;DHT22;14708;50.872;5.306;2023-04-24T14:31:24;21.40;61.90
27188;DHT22;14708;50.872;5.306;2023-04-24T14:33:53;21.40;62.10
27188;DHT22;14708;50.872;5.306;2023-04-24T14:36:18;21.40;62.20
27188;DHT22;14708;50.872;5.306;2023-04-24T14:38:44;21.40;62.40
27188;DHT22;14708;50.872;5.306;2023-04-24T14:41:12;21.40;62.70
27188;DHT22;14708;50.872;5.306;2023-04-24T14:43:39;21.40;63.00
27188;DHT22;14708;50.872;5.306;2023-04-24T14:46:05;21.30;62.80
27188;DHT22;14708;50.872;5.306;2023-04-24T14:48:31;21.20;61.70
27188;DHT22;14708;50.872;5.306;2023-04-24T14:50:57;21.20;61.30
27188;DHT22;14708;50.872;5.306;2023-04-24T14:53:23;21.30;58.80
27188;DHT22;14708;50.872;5.306;2023-04-24T14:55:49;21.20;59.50
27188;DHT22;14708;50.872;5.306;2023-04-24T14:58:15;21.20;59.50
27188;DHT22;14708;50.872;5.306;2023-04-24T15:00:41;21.20;59.50
27188;DHT22;14708;50.872;5.306;2023-04-24T15:03:07;21.20;60.00
27188;DHT22;14708;50.872;5.306;2023-04-24T15:05:33;21.20;60.30
27188;DHT22;14708;50.872;5.306;2023-04-24T15:07:59;21.10;60.50
27188;DHT22;14708;50.872;5.306;2023-04-24T15:10:25;21.10;60.50
27188;DHT22;14708;50.872;5.306;2023-04-24T15:12:51;21.10;61.20
27188;DHT22;14708;50.872;5.306;2023-04-24T15:15:17;21.10;61.50
27188;DHT22;14708;50.872;5.306;2023-04-24T15:17:43;21.10;62.60
27188;DHT22;14708;50.872;5.306;2023-04-24T15:20:17;21.10;62.80
27188;DHT22;14708;50.872;5.306;2023-04-24T15:22:44;21.10;63.30
27188;DHT22;14708;50.872;5.306;2023-04-24T15:25:18;21.20;59.00
27188;DHT22;14708;50.872;5.306;2023-04-24T15:27:47;21.10;59.80
27188;DHT22;14708;50.872;5.306;2023-04-24T15:30:25;21.20;62.10
27188;DHT22;14708;50.872;5.306;2023-04-24T15:32:51;21.20;61.90
27188;DHT22;14708;50.872;5.306;2023-04-24T15:35:17;21.30;62.60
27188;DHT22;14708;50.872;5.306;2023-04-24T15:37:43;21.30;62.50
27188;DHT22;14708;50.872;5.306;2023-04-24T15:40:10;21.50;62.50
27188;DHT22;14708;50.872;5.306;2023-04-24T15:42:45;21.50;62.60
27188;DHT22;14708;50.872;5.306;2023-04-24T15:45:20;21.60;62.20
27188;DHT22;14708;50.872;5.306;2023-04-24T15:47:50;21.70;62.20
27188;DHT22;14708;50.872;5.306;2023-04-24T15:50:22;21.70;62.30
27188;DHT22;14708;50.872;5.306;2023-04-24T15:52:49;21.70;62.40
27188;DHT22;14708;50.872;5.306;2023-04-24T15:55:17;21.70;62.30